Time;durP1;ratioP1;P1;durP2;ratioP2;P2;SDS_P1;SDS_P2;PMS_P1;PMS_P2;Temp;Humidity;BMP_temperature;BMP_pressure;BME280_temperature;BME280_humidity;BME280_pressure;Samples;Min_cycle;Max_cycle;Signal;HPM_P1;HPM_P2
2021/12/15 00:00:36;;;;;;;29.90;17.03;;;;;;;5.96;89.87;101734.95;1736712;82;21338;-77
2021/12/15 00:03:07;;;;;;;28.67;16.82;;;;;;;5.96;89.87;101737.56;1737105;82;21023;-77
2021/12/15 00:05:35;;;;;;;23.52;14.85;;;;;;;6.00;89.65;101735.83;1736919;82;21310;-77
2021/12/15 00:08:11;;;;;;;23.77;15.40;;;;;;;6.01;89.58;101728.44;1736973;82;21116;-77
2021/12/15 00:10:43;;;;;;;24.37;14.47;;;;;;;6.02;89.60;101725.00;1736881;82;21004;-80
2021/12/15 00:13:13;;;;;;;21.87;15.00;;;;;;;6.02;89.64;101733.67;1736863;82;21036;-77
2021/12/15 00:15:43;;;;;;;22.17;14.58;;;;;;;6.02;89.58;101731.50;1736871;82;21080;-78
2021/12/15 00:18:10;;;;;;;23.27;15.03;;;;;;;6.00;89.69;101730.62;1736984;82;20991;-77
2021/12/15 00:20:38;;;;;;;25.70;16.27;;;;;;;6.00;89.92;101732.78;1736822;82;21137;-77
2021/12/15 00:23:05;;;;;;;24.47;15.50;;;;;;;6.00;89.94;101730.62;1736610;82;21011;-77
2021/12/15 00:25:38;;;;;;;24.30;15.40;;;;;;;6.03;89.92;101729.33;1736792;82;21057;-76
2021/12/15 00:28:06;;;;;;;23.43;14.87;;;;;;;6.07;89.77;101733.69;1736639;82;21040;-77
2021/12/15 00:30:33;;;;;;;20.23;13.73;;;;;;;6.07;89.68;101744.51;1736809;82;21082;-77
2021/12/15 00:33:01;;;;;;;25.77;15.13;;;;;;;6.06;89.78;101738.44;1736683;82;21041;-77
2021/12/15 00:35:28;;;;;;;23.90;14.77;;;;;;;6.08;89.78;101728.91;1736688;82;21470;-78
2021/12/15 00:37:55;;;;;;;26.87;16.53;;;;;;;6.07;89.94;101739.30;1737021;82;21034;-77
2021/12/15 00:40:26;;;;;;;24.83;16.17;;;;;;;6.05;90.13;101748.42;1734114;82;21054;-77
2021/12/15 00:42:54;;;;;;;24.60;14.87;;;;;;;6.03;90.22;101744.50;1733800;82;21027;-77
2021/12/15 00:45:21;;;;;;;22.20;14.17;;;;;;;6.06;90.01;101744.09;1733289;82;21142;-77
2021/12/15 00:47:49;;;;;;;21.53;14.47;;;;;;;6.06;89.92;101755.80;1733518;82;21035;-77
2021/12/15 00:50:20;;;;;;;23.27;14.73;;;;;;;6.07;89.99;101752.31;1733377;82;20992;-77
2021/12/15 00:52:48;;;;;;;23.07;14.80;;;;;;;6.07;89.90;101753.22;1733534;82;21486;-80
2021/12/15 00:55:19;;;;;;;26.80;15.93;;;;;;;6.03;90.02;101754.91;1733313;82;21094;-77
2021/12/15 00:57:47;;;;;;;25.47;16.43;;;;;;;6.01;90.35;101751.87;1763042;81;21034;-77
2021/12/15 01:00:25;;;;;;;26.30;14.70;;;;;;;6.00;90.42;101751.00;1763682;81;21004;-76
2021/12/15 01:02:54;;;;;;;23.33;14.20;;;;;;;6.03;90.36;101751.02;1763378;81;20947;-77
2021/12/15 01:05:26;;;;;;;24.93;14.23;;;;;;;6.04;90.07;101753.17;1763627;81;21074;-76
2021/12/15 01:07:53;;;;;;;22.37;14.00;;;;;;;6.02;90.09;101756.23;1763844;81;21015;-77
2021/12/15 01:10:30;;;;;;;22.77;13.83;;;;;;;6.01;90.28;101747.97;1763650;81;21133;-76
2021/12/15 01:21:10;;;;;;;25.30;15.27;;;;;;;6.01;90.62;101757.97;1763734;81;21027;-77
2021/12/15 01:23:38;;;;;;;21.33;13.73;;;;;;;5.98;90.71;101759.23;1763546;81;22284;-77
2021/12/15 01:26:13;;;;;;;21.70;14.53;;;;;;;6.01;90.57;101764.48;1763652;81;20991;-77
2021/12/15 01:28:40;;;;;;;19.23;12.67;;;;;;;6.03;90.42;101770.97;1763657;81;21051;-77
2021/12/15 01:31:10;;;;;;;21.13;13.23;;;;;;;6.03;90.52;101762.72;1763615;81;21020;-78
2021/12/15 01:33:39;;;;;;;20.35;12.45;;;;;;;6.04;90.53;101762.29;1763803;81;21078;-77
2021/12/15 01:36:08;;;;;;;16.87;12.20;;;;;;;6.05;90.52;101763.19;1763581;81;21571;-79
2021/12/15 01:38:39;;;;;;;20.77;13.63;;;;;;;6.05;90.80;101770.99;1763971;81;20912;-77
2021/12/15 01:41:18;;;;;;;19.80;13.53;;;;;;;6.07;91.07;101767.53;1763525;81;21595;-79
2021/12/15 01:49:23;;;;;;;19.97;11.97;;;;;;;6.17;90.73;101772.31;1764090;81;21143;-78
2021/12/15 01:51:50;;;;;;;19.43;11.93;;;;;;;6.17;90.69;101771.88;1763756;81;21067;-77
2021/12/15 01:54:19;;;;;;;18.03;11.47;;;;;;;6.18;90.63;101772.75;1763722;81;21023;-78
2021/12/15 01:56:47;;;;;;;19.93;13.13;;;;;;;6.14;90.73;101773.17;1763799;81;21000;-80
2021/12/15 01:59:18;;;;;;;21.80;13.90;;;;;;;6.14;90.93;101774.48;1763729;81;21056;-80
2021/12/15 02:01:45;;;;;;;20.13;12.97;;;;;;;6.13;91.01;101774.05;1763865;81;21178;-77
2021/12/15 02:04:16;;;;;;;20.97;12.23;;;;;;;6.18;90.96;101776.25;1763508;81;21027;-77
2021/12/15 02:06:44;;;;;;;17.53;11.03;;;;;;;6.20;90.75;101778.39;1763838;81;21477;-77
2021/12/15 02:09:22;;;;;;;22.67;13.53;;;;;;;6.22;90.88;101774.07;1763686;81;21055;-77
2021/12/15 02:11:44;;;;;;;21.67;12.57;;;;;;;6.25;90.85;101766.27;1762855;81;21090;-79
2021/12/15 02:14:12;;;;;;;22.33;14.07;;;;;;;6.25;90.68;101766.70;1763545;81;21045;-77
2021/12/15 02:16:40;;;;;;;22.17;13.57;;;;;;;6.22;90.75;101769.30;1763917;81;21015;-77
2021/12/15 02:19:07;;;;;;;22.60;13.63;;;;;;;6.21;91.04;101770.18;1763567;81;21000;-78
2021/12/15 02:21:34;;;;;;;23.43;13.23;;;;;;;6.21;91.03;101781.45;1763951;81;21016;-78
2021/12/15 02:24:02;;;;;;;23.03;13.03;;;;;;;6.23;90.90;101786.21;1763709;81;21524;-78
2021/12/15 02:26:37;;;;;;;24.47;13.77;;;;;;;6.23;90.73;101774.94;1763888;81;21054;-77
2021/12/15 02:29:15;;;;;;;23.17;13.00;;;;;;;6.24;90.70;101776.26;1763469;81;21001;-76
2021/12/15 02:31:52;;;;;;;23.37;13.97;;;;;;;6.23;90.72;101769.73;1762748;81;21008;-80
2021/12/15 02:34:32;;;;;;;21.73;12.43;;;;;;;6.24;90.78;101776.26;1760716;81;21454;-79
2021/12/15 02:39:32;;;;;;;23.93;14.30;;;;;;;6.18;90.91;101781.86;1763563;81;21138;-78
2021/12/15 02:41:59;;;;;;;23.67;13.07;;;;;;;6.17;91.15;101774.92;1763449;81;21003;-77
2021/12/15 02:44:27;;;;;;;22.20;12.17;;;;;;;6.21;91.09;101773.64;1763630;81;21998;-78
2021/12/15 02:46:54;;;;;;;20.50;12.13;;;;;;;6.22;90.96;101776.67;1763530;81;20992;-77
2021/12/15 02:49:27;;;;;;;22.13;12.50;;;;;;;6.23;90.91;101777.54;1763584;81;21071;-79
2021/12/15 02:51:58;;;;;;;20.40;12.93;;;;;;;6.24;90.95;101782.77;1763832;81;21114;-80
2021/12/15 02:54:26;;;;;;;21.83;12.67;;;;;;;6.24;90.91;101778.00;1763341;81;21067;-77
2021/12/15 02:56:57;;;;;;;20.73;12.53;;;;;;;6.24;90.94;101781.46;1763651;81;21549;-78
2021/12/15 02:59:30;;;;;;;24.80;14.43;;;;;;;6.22;91.03;101784.48;1763820;81;21502;-77
2021/12/15 03:04:43;;;;;;;21.53;12.33;;;;;;;6.20;91.29;101786.20;1729508;81;21963;-77
2021/12/15 03:07:15;;;;;;;22.63;11.67;;;;;;;6.24;91.23;101790.58;1758401;81;21508;-78
2021/12/15 03:17:38;;;;;;;21.60;11.40;;;;;;;6.32;91.17;101800.13;1733390;82;22093;-80
2021/12/15 03:20:08;;;;;;;21.63;13.13;;;;;;;6.33;91.16;101811.00;1733625;82;21082;-80
2021/12/15 03:22:36;;;;;;;26.37;13.45;;;;;;;6.31;91.21;101801.86;1733765;82;21079;-77
2021/12/15 03:25:06;;;;;;;25.47;13.30;;;;;;;6.27;91.30;101801.44;1733446;82;21075;-77
2021/12/15 03:33:35;;;;;;;22.10;12.97;;;;;;;6.31;91.35;101790.15;1733271;82;21023;-78
2021/12/15 03:36:00;;;;;;;23.33;12.20;;;;;;;6.34;91.30;101801.01;1729711;82;20999;-77
2021/12/15 03:38:15;;;;;;;20.50;11.73;;;;;;;6.36;91.34;101796.25;1730679;82;21576;-77
2021/12/15 03:40:42;;;;;;;18.13;10.50;;;;;;;6.36;91.30;101801.89;1733397;82;21429;-77
2021/12/15 03:43:14;;;;;;;18.37;11.23;;;;;;;6.39;91.48;101797.98;1733314;82;22311;-77
2021/12/15 03:45:46;;;;;;;20.30;11.17;;;;;;;6.45;91.57;101798.00;1733467;82;21031;-77
2021/12/15 03:48:18;;;;;;;21.53;12.17;;;;;;;6.49;91.76;101797.16;1733345;82;21070;-77
2021/12/15 03:50:46;;;;;;;17.40;11.03;;;;;;;6.52;91.86;101792.39;1733378;82;21056;-78
2021/12/15 03:53:14;;;;;;;22.37;12.93;;;;;;;6.55;91.76;101804.98;1733620;82;21019;-77
2021/12/15 03:55:42;;;;;;;21.60;12.80;;;;;;;6.57;91.86;101804.96;1733379;82;21122;-77
2021/12/15 03:58:13;;;;;;;24.50;12.60;;;;;;;6.61;91.64;101807.59;1733512;82;21019;-77
2021/12/15 04:00:59;;;;;;;20.30;11.53;;;;;;;6.66;91.50;101812.38;1733427;82;21023;-80
2021/12/15 04:03:37;;;;;;;19.70;10.97;;;;;;;6.70;91.54;101811.50;1733753;82;21008;-77
2021/12/15 04:06:09;;;;;;;20.83;11.67;;;;;;;6.74;91.40;101805.88;1733452;82;21034;-77
2021/12/15 04:08:37;;;;;;;19.53;11.60;;;;;;;6.77;91.35;101808.48;1733529;82;22035;-80
2021/12/15 04:11:08;;;;;;;22.67;12.83;;;;;;;6.80;91.26;101810.23;1733209;82;20996;-77
2021/12/15 04:13:36;;;;;;;21.70;12.17;;;;;;;6.77;91.28;101804.58;1733598;82;21086;-79
2021/12/15 04:16:07;;;;;;;21.67;13.40;;;;;;;6.75;91.07;101814.56;1733316;82;21050;-77
2021/12/15 04:18:35;;;;;;;20.63;12.50;;;;;;;6.74;91.21;101814.14;1733422;82;21088;-78
2021/12/15 04:21:05;;;;;;;19.45;10.68;;;;;;;6.74;91.20;101818.05;1733475;82;21277;-78
2021/12/15 04:23:34;;;;;;;19.53;11.27;;;;;;;6.75;90.96;101821.94;1733589;82;21062;-77
2021/12/15 04:26:01;;;;;;;18.50;11.20;;;;;;;6.77;90.86;101822.82;1733301;82;21016;-78
2021/12/15 04:28:34;;;;;;;18.23;10.73;;;;;;;6.76;90.73;101825.00;1733541;82;20984;-78
2021/12/15 04:31:06;;;;;;;19.00;10.70;;;;;;;6.77;90.86;101820.66;1733341;82;21012;-77
2021/12/15 04:33:41;;;;;;;18.63;10.60;;;;;;;6.80;91.03;101826.73;1733550;82;21710;-77
2021/12/15 04:36:13;;;;;;;22.83;11.57;;;;;;;6.83;90.93;101832.38;1733192;82;21516;-77
2021/12/15 04:38:42;;;;;;;20.80;11.67;;;;;;;6.82;90.89;101831.96;1733702;82;21487;-80
2021/12/15 04:41:16;;;;;;;20.17;11.97;;;;;;;6.79;90.99;101837.14;1720304;82;21086;-77
2021/12/15 04:43:49;;;;;;;25.77;12.93;;;;;;;6.75;90.99;101838.88;1706803;84;21520;-78
2021/12/15 04:46:15;;;;;;;20.60;11.93;;;;;;;6.72;90.91;101828.45;1706701;84;22028;-77
2021/12/15 04:48:43;;;;;;;22.63;11.20;;;;;;;6.74;90.96;101835.84;1706688;84;21042;-77
2021/12/15 04:51:10;;;;;;;19.70;11.30;;;;;;;6.76;90.74;101838.44;1706716;84;20915;-77
2021/12/15 04:53:37;;;;;;;20.77;11.73;;;;;;;6.75;90.78;101845.39;1707082;84;21031;-78
2021/12/15 04:56:06;;;;;;;17.53;10.27;;;;;;;6.78;90.96;101844.53;1706690;84;21073;-79
2021/12/15 04:58:34;;;;;;;19.73;11.17;;;;;;;6.78;90.86;101844.09;1706815;84;21069;-77
2021/12/15 05:01:07;;;;;;;21.33;11.77;;;;;;;6.77;90.86;101846.72;1706727;84;21519;-77
2021/12/15 05:03:34;;;;;;;22.77;12.40;;;;;;;6.74;90.88;101842.36;1706868;84;21011;-77
2021/12/15 05:06:03;;;;;;;20.07;11.33;;;;;;;6.72;90.93;101849.73;1706798;84;21020;-77
2021/12/15 05:08:30;;;;;;;21.17;11.53;;;;;;;6.68;91.04;101839.31;1706766;84;21505;-77
2021/12/15 05:10:59;;;;;;;20.17;10.27;;;;;;;6.73;91.00;101847.12;1706734;84;21152;-77
2021/12/15 05:13:27;;;;;;;19.43;11.17;;;;;;;6.74;90.84;101850.63;1706717;84;21394;-78
2021/12/15 05:15:55;;;;;;;18.80;11.13;;;;;;;6.74;90.88;101850.18;1706646;84;21055;-77
2021/12/15 05:18:22;;;;;;;18.00;10.50;;;;;;;6.74;90.85;101856.70;1706714;84;21039;-77
2021/12/15 05:20:52;;;;;;;20.27;11.27;;;;;;;6.77;90.94;101858.00;1706868;84;21488;-79
2021/12/15 05:23:21;;;;;;;15.97;9.93;;;;;;;6.80;91.04;101857.14;1706887;84;21155;-78
2021/12/15 05:25:48;;;;;;;18.73;10.87;;;;;;;6.81;91.08;101855.82;1706921;84;21052;-78
2021/12/15 05:28:15;;;;;;;19.80;11.90;;;;;;;6.84;91.32;101851.91;1706682;84;20992;-77
2021/12/15 05:30:44;;;;;;;21.73;13.13;;;;;;;6.87;91.27;101856.27;1707072;84;21015;-77
2021/12/15 05:33:11;;;;;;;21.47;12.10;;;;;;;6.84;91.07;101864.95;1706719;84;21536;-78
2021/12/15 05:35:38;;;;;;;21.03;11.87;;;;;;;6.84;90.88;101862.78;1707117;84;21142;-77
2021/12/15 05:38:08;;;;;;;26.13;14.73;;;;;;;6.84;90.75;101864.08;1706619;84;21082;-77
2021/12/15 05:40:36;;;;;;;26.30;14.93;;;;;;;6.85;90.77;101868.01;1710294;82;21042;-77
2021/12/15 05:43:06;;;;;;;28.10;15.63;;;;;;;6.84;90.67;101864.95;1733303;82;21567;-79
2021/12/15 05:45:37;;;;;;;26.23;15.77;;;;;;;6.85;90.71;101867.14;1747511;81;21091;-79
2021/12/15 05:48:07;;;;;;;30.97;18.40;;;;;;;6.84;90.67;101867.98;1746565;81;21244;-79
2021/12/15 05:50:35;;;;;;;32.70;17.98;;;;;;;6.77;90.71;101874.94;1752296;81;21450;-79
2021/12/15 05:53:03;;;;;;;31.30;16.13;;;;;;;6.73;90.70;101871.01;1762774;81;21071;-81
2021/12/15 05:55:30;;;;;;;27.30;15.17;;;;;;;6.70;90.98;101872.73;1757251;81;21039;-79
2021/12/15 05:57:57;;;;;;;23.17;13.30;;;;;;;6.72;90.88;101871.45;1738572;81;21043;-79
2021/12/15 06:00:29;;;;;;;26.50;14.07;;;;;;;6.76;90.83;101871.02;1733501;82;21171;-79
2021/12/15 06:02:58;;;;;;;27.03;13.63;;;;;;;6.77;90.83;101879.29;1733751;82;21035;-79
2021/12/15 06:05:25;;;;;;;28.27;14.47;;;;;;;6.78;90.97;101868.84;1733232;82;21062;-84
2021/12/15 06:07:53;;;;;;;28.37;14.37;;;;;;;6.78;90.83;101875.36;1733548;82;21015;-79
2021/12/15 06:10:24;;;;;;;33.07;16.40;;;;;;;6.79;90.84;101881.03;1733183;82;21059;-87
2021/12/15 06:12:51;;;;;;;31.33;16.50;;;;;;;6.78;90.90;101888.83;1733492;82;21099;-76
2021/12/15 06:15:23;;;;;;;34.80;15.57;;;;;;;6.73;90.93;101889.25;1733154;82;21019;-78
2021/12/15 06:17:53;;;;;;;31.30;15.97;;;;;;;6.69;91.01;101890.98;1733497;82;21433;-77
2021/12/15 06:20:20;;;;;;;30.53;15.47;;;;;;;6.67;91.10;101897.92;1733437;82;21035;-77
2021/12/15 06:22:47;;;;;;;28.57;14.43;;;;;;;6.69;91.06;101893.16;1733570;82;21030;-78
2021/12/15 06:25:15;;;;;;;31.27;14.33;;;;;;;6.68;90.83;101892.73;1733339;82;21130;-79
2021/12/15 06:27:42;;;;;;;26.07;14.00;;;;;;;6.67;90.82;101898.78;1733360;82;21015;-79
2021/12/15 06:30:10;;;;;;;26.70;13.57;;;;;;;6.63;90.81;101897.05;1733228;82;21059;-80
2021/12/15 06:32:37;;;;;;;27.60;14.00;;;;;;;6.63;90.90;101900.95;1733507;82;21039;-79
2021/12/15 06:35:08;;;;;;;25.27;13.17;;;;;;;6.63;90.96;101899.66;1737612;81;21374;-75
2021/12/15 06:37:35;;;;;;;;;;;;;;;6.59;90.97;101903.09;1766506;81;21088;-75
2021/12/15 06:40:08;;;;;;;24.53;13.30;;;;;;;6.55;91.14;101900.50;1760910;81;20169;-75
2021/12/15 06:42:39;;;;;;;31.50;15.23;;;;;;;6.50;91.21;101913.49;1727987;82;21577;-75
2021/12/15 06:45:10;;;;;;;30.87;14.77;;;;;;;6.50;91.12;101916.53;1727078;83;20920;-74
2021/12/15 06:58:40;;;;;;;28.30;14.40;;;;;;;6.46;91.31;101932.59;1727116;83;21035;-74
2021/12/15 07:01:07;;;;;;;30.10;15.53;;;;;;;6.45;91.58;101928.23;1727345;83;21020;-74
2021/12/15 07:03:35;;;;;;;30.13;15.90;;;;;;;6.43;91.55;101929.55;1726984;83;21537;-74
2021/12/15 07:06:09;;;;;;;28.30;14.13;;;;;;;6.40;91.61;101935.14;1727270;83;21027;-73
2021/12/15 07:08:37;;;;;;;27.27;14.37;;;;;;;6.40;91.50;101928.23;1727118;83;21592;-74
2021/12/15 07:11:06;;;;;;;29.00;14.43;;;;;;;6.40;91.39;101929.94;1727336;83;20992;-74
2021/12/15 07:13:34;;;;;;;25.43;13.50;;;;;;;6.40;91.46;101929.53;1727029;83;21560;-73
2021/12/15 07:16:07;;;;;;;27.40;14.73;;;;;;;6.41;91.63;101929.09;1727308;83;21502;-74
2021/12/15 07:18:45;;;;;;;27.67;15.78;;;;;;;6.41;91.70;101926.48;1726740;83;21071;-74
2021/12/15 07:21:17;;;;;;;27.30;14.50;;;;;;;6.45;91.90;101919.98;1726594;83;21027;-74
2021/12/15 07:23:42;;;;;;;29.93;13.97;;;;;;;6.48;91.84;101923.03;1726746;83;21012;-74
2021/12/15 07:26:09;;;;;;;26.97;13.63;;;;;;;6.46;91.76;101921.73;1727164;83;21075;-74
2021/12/15 07:28:37;;;;;;;27.90;15.60;;;;;;;6.44;91.89;101922.16;1727063;83;21122;-75
2021/12/15 07:31:05;;;;;;;27.70;14.83;;;;;;;6.42;91.86;101924.31;1726907;83;21004;-74
2021/12/15 07:33:32;;;;;;;29.93;16.20;;;;;;;6.44;91.76;101922.59;1727250;83;21059;-74
2021/12/15 07:36:00;;;;;;;36.20;19.77;;;;;;;6.43;91.60;101923.03;1726980;83;21027;-74
2021/12/15 07:38:27;;;;;;;39.80;24.00;;;;;;;6.44;91.55;101923.89;1727162;83;21019;-74
2021/12/15 07:40:55;;;;;;;42.37;23.73;;;;;;;6.42;91.53;101918.66;1727077;83;21126;-74
2021/12/15 07:43:25;;;;;;;35.77;20.27;;;;;;;6.41;91.58;101920.84;1735926;82;21015;-74
2021/12/15 07:46:00;;;;;;;31.60;17.82;;;;;;;6.40;91.62;101923.42;1736507;82;21090;-74
2021/12/15 07:48:34;;;;;;;31.67;16.53;;;;;;;6.42;91.72;101922.57;1736114;82;21460;-74
2021/12/15 07:51:05;;;;;;;30.50;16.63;;;;;;;6.42;91.92;101921.70;1736473;82;21528;-74
2021/12/15 07:53:33;;;;;;;31.40;16.67;;;;;;;6.40;91.98;101916.51;1736166;82;21124;-74
2021/12/15 07:56:00;;;;;;;32.97;16.47;;;;;;;6.36;91.92;101916.48;1736391;82;21062;-74
2021/12/15 07:58:28;;;;;;;28.80;16.23;;;;;;;6.36;91.69;101919.95;1736228;82;21027;-74
2021/12/15 08:00:59;;;;;;;28.67;16.30;;;;;;;6.34;91.50;101917.76;1736548;82;21004;-74
2021/12/15 08:03:27;;;;;;;28.00;14.50;;;;;;;6.32;91.64;101924.72;1736414;82;21027;-74
2021/12/15 08:05:55;;;;;;;28.13;13.40;;;;;;;6.32;91.78;101922.52;1736455;82;21187;-74
2021/12/15 08:08:22;;;;;;;22.23;12.70;;;;;;;6.34;91.91;101927.31;1736320;82;21023;-75
2021/12/15 08:10:56;;;;;;;19.53;11.23;;;;;;;6.37;92.12;101929.48;1736465;82;21027;-74
2021/12/15 08:13:27;;;;;;;17.37;10.43;;;;;;;6.43;92.21;101937.80;1736299;82;21059;-77
2021/12/15 08:15:55;;;;;;;14.60;8.77;;;;;;;6.47;92.25;101933.02;1736462;82;21268;-74
2021/12/15 08:18:22;;;;;;;13.13;8.63;;;;;;;6.53;92.36;101937.39;1736239;82;21129;-74
2021/12/15 08:20:50;;;;;;;13.43;8.33;;;;;;;6.58;92.43;101932.63;1736439;82;21083;-74
2021/12/15 08:23:18;;;;;;;17.07;9.17;;;;;;;6.61;92.48;101933.95;1736215;82;21003;-74
2021/12/15 08:25:47;;;;;;;25.10;12.10;;;;;;;6.63;92.70;101936.13;1736608;82;21023;-74
2021/12/15 08:28:15;;;;;;;18.03;9.93;;;;;;;6.68;92.85;101931.81;1736237;82;21544;-74
2021/12/15 08:30:46;;;;;;;19.47;10.97;;;;;;;6.75;92.72;101933.99;1736220;82;21211;-74
2021/12/15 08:33:18;;;;;;;27.43;14.47;;;;;;;6.80;92.46;101932.72;1736179;82;21492;-75
2021/12/15 08:35:58;;;;;;;12.97;7.90;;;;;;;6.84;92.41;101937.06;1735987;82;21046;-74
2021/12/15 08:38:33;;;;;;;11.00;6.97;;;;;;;6.88;92.39;101944.91;1736546;82;21039;-74
2021/12/15 08:41:05;;;;;;;12.07;6.73;;;;;;;6.94;92.45;101941.44;1736282;82;21300;-74
2021/12/15 08:43:33;;;;;;;10.47;6.23;;;;;;;7.00;92.53;101937.53;1733483;82;21398;-74
2021/12/15 08:46:10;;;;;;;9.57;6.07;;;;;;;7.07;92.46;101943.22;1733532;82;21011;-74
2021/12/15 08:48:41;;;;;;;9.10;6.17;;;;;;;7.14;92.65;101942.34;1733496;82;21039;-74
2021/12/15 08:51:11;;;;;;;8.75;6.17;;;;;;;7.21;92.78;101939.33;1733665;82;21007;-74
2021/12/15 08:53:41;;;;;;;9.43;7.03;;;;;;;7.25;92.66;101940.20;1733590;82;20996;-77
2021/12/15 08:56:08;;;;;;;;;;;;;;;7.26;92.54;101933.69;1736260;82;22071;-74
2021/12/15 08:58:36;;;;;;;9.17;6.37;;;;;;;7.32;92.39;101939.34;1733299;82;20140;-74
2021/12/15 09:01:06;;;;;;;8.70;5.93;;;;;;;7.34;92.16;101938.89;1733588;82;21035;-74
2021/12/15 09:03:33;;;;;;;7.50;5.58;;;;;;;7.35;92.07;101941.52;1733428;82;21023;-74
2021/12/15 09:06:02;;;;;;;9.53;5.60;;;;;;;7.38;92.04;101940.21;1733648;82;21011;-74
2021/12/15 09:08:29;;;;;;;9.77;6.27;;;;;;;7.43;92.11;101933.70;1733304;82;21496;-74
2021/12/15 09:11:01;;;;;;;8.93;6.50;;;;;;;7.46;91.97;101935.45;1733609;82;21019;-81
2021/12/15 09:13:30;;;;;;;10.40;6.80;;;;;;;7.46;92.00;101936.75;1733139;82;22152;-74
2021/12/15 09:16:03;;;;;;;9.87;7.30;;;;;;;7.46;92.15;101938.92;1733762;82;21067;-74
2021/12/15 09:18:30;;;;;;;9.50;6.57;;;;;;;7.44;91.96;101930.66;1733429;82;21069;-75
2021/12/15 09:20:59;;;;;;;11.10;7.27;;;;;;;7.47;91.85;101928.05;1733619;82;21516;-74
2021/12/15 09:23:27;;;;;;;10.63;7.37;;;;;;;7.51;91.81;101930.66;1733248;82;21027;-74
2021/12/15 09:25:55;;;;;;;9.43;6.70;;;;;;;7.52;91.60;101932.83;1733472;82;21457;-80
2021/12/15 09:28:24;;;;;;;9.43;6.70;;;;;;;7.54;91.74;101927.19;1733589;82;21975;-74
2021/12/15 09:30:53;;;;;;;11.53;7.03;;;;;;;7.57;91.60;101929.80;1733471;82;21067;-73
2021/12/15 09:33:28;;;;;;;10.27;7.60;;;;;;;7.55;91.69;101932.83;1733597;82;21265;-74
2021/12/15 09:35:57;;;;;;;11.40;8.00;;;;;;;7.52;91.78;101934.14;1733468;82;21528;-74
2021/12/15 09:38:25;;;;;;;10.53;7.03;;;;;;;7.50;91.81;101924.13;1733386;82;21055;-81
2021/12/15 09:40:57;;;;;;;8.70;6.37;;;;;;;7.50;91.65;101926.30;1733527;82;21023;-74
2021/12/15 09:43:27;;;;;;;10.10;5.80;;;;;;;7.51;91.54;101928.05;1733447;82;21070;-75
2021/12/15 09:46:04;;;;;;;8.70;6.33;;;;;;;7.54;91.60;101934.58;1733668;82;21214;-73
2021/12/15 09:57:14;;;;;;;9.07;6.73;;;;;;;7.55;91.80;101922.39;1733615;82;21035;-73
2021/12/15 10:02:28;;;;;;;10.40;7.60;;;;;;;7.58;91.52;101913.25;1733171;82;20976;-73
2021/12/15 10:05:03;;;;;;;9.60;6.80;;;;;;;7.63;91.57;101913.27;1731042;82;21004;-73
2021/12/15 10:10:41;;;;;;;7.93;6.17;;;;;;;7.65;91.50;101921.94;1730132;82;21031;-73
2021/12/15 10:18:32;;;;;;;9.27;7.23;;;;;;;7.70;91.63;101904.09;1733171;82;21040;-74
2021/12/15 10:20:52;;;;;;;10.90;7.60;;;;;;;7.73;91.61;101903.23;1730957;82;21504;-73
2021/12/15 10:23:29;;;;;;;10.60;7.97;;;;;;;7.70;91.65;101905.41;1733593;82;21027;-74
2021/12/15 10:25:54;;;;;;;10.40;8.13;;;;;;;7.68;91.57;101895.87;1732249;82;21207;-74
2021/12/15 10:28:25;;;;;;;9.70;7.60;;;;;;;7.68;91.27;101895.87;1733506;82;21031;-79
2021/12/15 10:30:57;;;;;;;9.17;6.93;;;;;;;7.69;91.21;101894.98;1733385;82;21109;-79
2021/12/15 10:33:29;;;;;;;9.57;6.33;;;;;;;7.69;91.30;101899.77;1733209;82;21039;-81
2021/12/15 10:36:01;;;;;;;8.43;6.10;;;;;;;7.68;91.11;101898.03;1733580;82;21572;-73
2021/12/15 10:38:45;;;;;;;9.77;6.90;;;;;;;7.67;91.11;101893.66;1733458;82;21129;-73
2021/12/15 10:41:31;;;;;;;9.33;7.10;;;;;;;7.69;91.50;101893.68;1733522;82;21078;-73
2021/12/15 10:44:13;;;;;;;9.73;7.20;;;;;;;7.72;91.58;101891.06;1733048;82;21015;-74
2021/12/15 10:46:57;;;;;;;9.27;6.50;;;;;;;7.73;91.59;101892.78;1733493;82;21004;-79
2021/12/15 10:49:29;;;;;;;7.90;6.10;;;;;;;7.76;91.38;101888.86;1733275;82;21464;-72
2021/12/15 10:52:01;;;;;;;9.20;6.30;;;;;;;7.77;91.06;101888.88;1733315;82;21481;-79
2021/12/15 10:54:44;;;;;;;7.77;5.80;;;;;;;7.77;91.03;101894.53;1733240;82;20988;-78
2021/12/15 10:57:21;;;;;;;9.27;6.60;;;;;;;7.74;90.94;101896.72;1733439;82;21012;-73
2021/12/15 10:59:53;;;;;;;9.07;6.53;;;;;;;7.73;90.97;101890.17;1732111;82;21040;-73
2021/12/15 11:02:27;;;;;;;9.17;6.80;;;;;;;7.73;91.18;101886.27;1733354;82;21015;-73
2021/12/15 11:05:01;;;;;;;9.97;7.77;;;;;;;7.75;91.35;101885.39;1733278;82;21144;-73
2021/12/15 11:07:33;;;;;;;10.93;7.47;;;;;;;7.76;91.30;101889.76;1733187;82;20999;-73
2021/12/15 11:10:20;;;;;;;11.00;7.37;;;;;;;7.79;91.04;101887.58;1733445;82;21066;-73
2021/12/15 11:12:57;;;;;;;11.30;7.80;;;;;;;7.81;90.81;101884.52;1733297;82;21019;-79
2021/12/15 11:15:32;;;;;;;9.70;7.27;;;;;;;7.81;90.75;101882.80;1733524;82;21031;-73
2021/12/15 11:18:13;;;;;;;11.00;7.93;;;;;;;7.82;90.71;101886.27;1733178;82;21128;-73
2021/12/15 11:20:44;;;;;;;11.57;7.97;;;;;;;7.82;90.72;101878.44;1732711;82;20999;-73
2021/12/15 11:23:19;;;;;;;11.93;8.90;;;;;;;7.81;90.91;101884.52;1733534;82;21018;-73
2021/12/15 11:25:53;;;;;;;13.73;8.83;;;;;;;7.85;91.12;101882.34;1732734;82;21055;-73
2021/12/15 11:28:40;;;;;;;11.77;7.83;;;;;;;7.89;90.78;101877.53;1733311;82;20995;-73
2021/12/15 11:31:17;;;;;;;11.20;7.83;;;;;;;7.91;90.51;101882.77;1733580;82;21572;-73
2021/12/15 11:33:55;;;;;;;12.57;8.40;;;;;;;7.88;90.33;101878.42;1733297;82;21003;-73
2021/12/15 11:36:33;;;;;;;13.13;8.37;;;;;;;7.87;90.48;101888.84;1733745;82;21023;-73
2021/12/15 11:39:20;;;;;;;11.40;8.43;;;;;;;7.80;90.51;101882.34;1733473;82;21063;-73
2021/12/15 11:41:52;;;;;;;11.07;7.53;;;;;;;7.83;90.75;101883.64;1733421;82;21070;-73
2021/12/15 11:44:26;;;;;;;10.87;7.83;;;;;;;7.87;90.51;101887.14;1728035;82;21920;-73
2021/12/15 11:46:58;;;;;;;10.80;7.57;;;;;;;7.88;90.25;101888.86;1727326;83;20951;-73
2021/12/15 11:49:32;;;;;;;12.03;7.90;;;;;;;7.90;90.36;101892.34;1726333;83;21536;-76
2021/12/15 11:52:06;;;;;;;11.83;7.67;;;;;;;7.91;90.24;101890.59;1727091;83;21051;-73
2021/12/15 11:54:48;;;;;;;11.17;8.20;;;;;;;7.87;90.25;101894.97;1727446;83;21043;-74
2021/12/15 11:57:26;;;;;;;13.70;8.60;;;;;;;7.86;90.33;101904.09;1727439;83;21116;-75
2021/12/15 12:00:11;;;;;;;20.63;11.47;;;;;;;7.86;90.46;101905.40;1727131;83;21025;-73
2021/12/15 12:02:47;;;;;;;13.77;8.77;;;;;;;7.87;90.54;101899.29;1727466;83;20976;-73
2021/12/15 12:05:35;;;;;;;14.50;8.47;;;;;;;7.92;90.34;101902.77;1727516;83;21612;-73
2021/12/15 12:08:11;;;;;;;12.00;7.97;;;;;;;7.92;89.92;101893.19;1727086;83;21583;-73
2021/12/15 12:10:49;;;;;;;13.63;7.67;;;;;;;7.92;90.00;101889.72;1726506;83;21122;-79
2021/12/15 12:13:25;;;;;;;12.33;7.33;;;;;;;7.96;90.14;101893.63;1727310;83;22109;-73
2021/12/15 12:15:56;;;;;;;11.10;7.43;;;;;;;7.95;90.10;101890.59;1727086;83;21043;-73
2021/12/15 12:18:28;;;;;;;13.47;8.27;;;;;;;7.97;90.22;101885.36;1727281;83;21027;-73
2021/12/15 12:21:06;;;;;;;11.67;8.20;;;;;;;7.98;90.31;101887.08;1727483;83;21035;-77
2021/12/15 12:23:35;;;;;;;12.60;7.77;;;;;;;7.99;90.29;101885.78;1727169;83;21120;-73
2021/12/15 12:26:06;;;;;;;10.20;6.93;;;;;;;8.03;89.94;101885.33;1727272;83;21553;-73
2021/12/15 12:28:41;;;;;;;10.57;6.43;;;;;;;8.04;89.84;101884.48;1727190;83;21031;-74
2021/12/15 12:31:19;;;;;;;9.67;6.33;;;;;;;8.08;89.88;101887.94;1727558;83;21478;-73
2021/12/15 12:33:47;;;;;;;10.13;6.70;;;;;;;8.11;89.91;101891.84;1727121;83;21072;-76
2021/12/15 12:36:18;;;;;;;10.70;7.63;;;;;;;8.08;89.83;101886.64;1727173;83;21136;-73
2021/12/15 12:38:53;;;;;;;9.80;7.33;;;;;;;8.07;90.05;101891.44;1726989;83;21046;-73
2021/12/15 12:41:25;;;;;;;12.17;8.33;;;;;;;8.07;89.97;101892.74;1727138;83;21042;-73